createdAt,value
2023-04-15T00:00:18.985Z,95533.44
2023-04-15T00:03:25.386Z,95516.34
2023-04-15T00:06:31.338Z,95518.19
2023-04-15T00:09:35.851Z,95501.41
2023-04-15T00:12:41.269Z,95512.66
2023-04-15T00:15:45.749Z,95504.06
2023-04-15T00:18:50.558Z,95499.13
2023-04-15T00:21:55.681Z,95499.03
2023-04-15T00:25:00.202Z,95490.81
2023-04-15T00:28:04.997Z,95510.41
2023-04-15T00:31:09.770Z,95499.41
2023-04-15T00:34:14.941Z,95511.91
2023-04-15T00:37:21.211Z,95525.59
2023-04-15T00:40:26.193Z,95482.31
2023-04-15T00:43:31.210Z,95499.16
2023-04-15T00:46:38.266Z,95479.53
2023-04-15T00:49:42.823Z,95471.28
2023-04-15T00:52:47.502Z,95508.91
2023-04-15T00:55:54.046Z,95516.72
2023-04-15T00:58:59.582Z,95512.72
2023-04-15T01:02:04.903Z,95466.22
2023-04-15T01:05:09.717Z,95481.13
2023-04-15T01:08:14.796Z,95485.06
2023-04-15T01:11:20.066Z,95518.25
2023-04-15T01:14:26.138Z,95476.00
2023-04-15T01:17:30.719Z,95486.19
2023-04-15T01:20:36.315Z,95518.69
2023-04-15T01:23:41.030Z,95501.50
2023-04-15T01:26:46.632Z,95520.78
2023-04-15T01:29:51.523Z,95492.59
2023-04-15T01:32:56.211Z,95501.41
2023-04-15T01:36:01.625Z,95470.47
2023-04-15T01:39:06.667Z,95491.88
2023-04-15T01:42:11.583Z,95498.13
2023-04-15T01:45:16.648Z,95476.47
2023-04-15T01:48:21.670Z,95465.19
2023-04-15T01:51:27.284Z,95469.09
2023-04-15T01:54:31.838Z,95480.66
2023-04-15T01:57:37.024Z,95480.78
2023-04-15T02:00:41.885Z,95481.72
2023-04-15T02:03:47.889Z,95484.75
2023-04-15T02:06:53.381Z,95509.91
2023-04-15T02:09:59.638Z,95482.59
2023-04-15T02:13:04.795Z,95499.47
2023-04-15T02:16:19.602Z,95492.50
2023-04-15T02:19:25.166Z,95482.97
2023-04-15T02:22:30.343Z,95484.16
2023-04-15T02:25:35.013Z,95499.84
2023-04-15T02:28:42.326Z,95488.06
2023-04-15T02:31:48.123Z,95487.06
2023-04-15T02:34:53.145Z,95518.09
2023-04-15T02:37:57.786Z,95489.41
2023-04-15T02:41:02.963Z,95491.34
2023-04-15T02:44:10.915Z,95492.88
2023-04-15T02:47:16.428Z,95495.38
2023-04-15T02:50:21.031Z,95481.25
2023-04-15T02:53:26.861Z,95486.59
2023-04-15T02:56:31.645Z,95489.16
2023-04-15T02:59:36.229Z,95498.56
2023-04-15T03:02:42.299Z,95480.25
2023-04-15T03:05:47.120Z,95476.81
2023-04-15T03:08:51.874Z,95504.41
2023-04-15T03:11:57.147Z,95497.22
2023-04-15T03:15:02.583Z,95508.28
2023-04-15T03:18:13.807Z,95475.03
2023-04-15T03:21:20.011Z,95485.72
2023-04-15T03:24:27.158Z,95477.03
2023-04-15T03:27:34.049Z,95480.50
2023-04-15T03:30:41.129Z,95471.19
2023-04-15T03:33:47.049Z,95466.44
2023-04-15T03:36:52.173Z,95477.69
2023-04-15T03:39:56.737Z,95518.31
2023-04-15T03:43:01.749Z,95490.69
2023-04-15T03:46:06.933Z,95490.41
2023-04-15T03:49:11.502Z,95493.34
2023-04-15T03:52:16.313Z,95497.63
2023-04-15T03:55:21.030Z,95504.19
2023-04-15T03:58:25.637Z,95504.34
2023-04-15T04:01:30.281Z,95478.97
2023-04-15T04:04:34.912Z,95485.91
2023-04-15T04:07:39.494Z,95456.38
2023-04-15T04:10:43.999Z,95475.41
2023-04-15T04:13:48.871Z,95498.94
2023-04-15T04:16:53.674Z,95506.66
2023-04-15T04:19:58.328Z,95482.38
2023-04-15T04:23:02.829Z,95502.59
2023-04-15T04:26:07.451Z,95516.78
2023-04-15T04:29:12.379Z,95510.31
2023-04-15T04:32:17.188Z,95484.50
2023-04-15T04:35:22.013Z,95522.38
2023-04-15T04:38:26.560Z,95490.34
2023-04-15T04:41:32.284Z,95478.38
2023-04-15T04:44:37.220Z,95489.28
2023-04-15T04:47:41.780Z,95505.59
2023-04-15T04:50:47.359Z,95531.44
2023-04-15T04:53:51.932Z,95493.81
2023-04-15T04:56:57.831Z,95501.41
2023-04-15T05:00:04.904Z,95522.09
2023-04-15T05:03:09.597Z,95515.63
2023-04-15T05:06:14.426Z,95526.59
2023-04-15T05:09:19.200Z,95521.00
2023-04-15T05:12:23.730Z,95459.53
2023-04-15T05:15:28.371Z,95516.22
2023-04-15T05:18:33.474Z,95548.84
2023-04-15T05:21:39.523Z,95530.69
2023-04-15T05:24:44.216Z,95526.53
2023-04-15T05:27:49.071Z,95535.13
2023-04-15T05:30:53.742Z,95559.66
2023-04-15T05:33:58.314Z,95523.47
2023-04-15T05:37:03.384Z,95534.13
2023-04-15T05:40:10.479Z,95532.72
2023-04-15T05:43:15.215Z,95537.75
2023-04-15T05:46:19.889Z,95589.16
2023-04-15T05:49:24.409Z,95560.53
2023-04-15T05:52:29.054Z,95564.19
2023-04-15T05:55:33.520Z,95588.47
2023-04-15T05:58:38.025Z,95579.28
2023-04-15T06:01:42.885Z,95575.97
2023-04-15T06:04:47.942Z,95550.63
2023-04-15T06:07:52.765Z,95601.63
2023-04-15T06:10:58.503Z,95576.69
2023-04-15T06:14:03.158Z,95578.53
2023-04-15T06:17:08.418Z,95591.09
2023-04-15T06:20:13.025Z,95584.75
2023-04-15T06:23:17.651Z,95597.78
2023-04-15T06:26:22.480Z,95586.69
2023-04-15T06:29:27.104Z,95573.63
2023-04-15T06:32:32.648Z,95555.91
2023-04-15T06:35:37.655Z,95592.56
2023-04-15T06:38:42.459Z,95612.22
2023-04-15T06:41:47.310Z,95587.31
2023-04-15T06:44:51.881Z,95575.91
2023-04-15T06:47:56.575Z,95593.81
2023-04-15T06:51:01.569Z,95587.84
2023-04-15T06:54:06.520Z,95594.88
2023-04-15T06:57:11.335Z,95572.56
2023-04-15T07:00:16.675Z,95593.84
2023-04-15T07:03:21.223Z,95569.91
2023-04-15T07:06:25.983Z,95581.56
2023-04-15T07:09:30.576Z,95619.84
2023-04-15T07:12:35.896Z,95587.19
2023-04-15T07:15:40.469Z,95574.16
2023-04-15T07:18:45.087Z,95611.78
2023-04-15T07:21:49.562Z,95631.13
2023-04-15T07:24:54.135Z,95617.00
2023-04-15T07:27:58.849Z,95597.28
2023-04-15T07:31:04.154Z,95626.16
2023-04-15T07:34:09.008Z,95622.69
2023-04-15T07:37:13.893Z,95625.44
2023-04-15T07:40:18.605Z,95615.44
2023-04-15T07:43:23.494Z,95610.47
2023-04-15T07:46:28.635Z,95604.31
2023-04-15T07:49:33.206Z,95604.84
2023-04-15T07:52:40.677Z,95612.16
2023-04-15T07:55:45.342Z,95641.41
2023-04-15T07:58:49.918Z,95624.66
2023-04-15T08:01:55.278Z,95655.06
2023-04-15T08:05:01.725Z,95641.28
2023-04-15T08:08:06.965Z,95644.09
2023-04-15T08:11:12.772Z,95614.69
2023-04-15T08:14:17.399Z,95617.06
2023-04-15T08:17:22.191Z,95651.81
2023-04-15T08:20:27.746Z,95634.81
2023-04-15T08:23:33.384Z,95647.22
2023-04-15T08:26:37.960Z,95625.78
2023-04-15T08:29:42.544Z,95645.75
2023-04-15T08:32:47.694Z,95643.16
2023-04-15T08:35:52.982Z,95641.41
2023-04-15T08:38:57.726Z,95634.44
2023-04-15T08:42:05.590Z,95626.22
2023-04-15T08:45:13.596Z,95644.75
2023-04-15T08:48:18.474Z,95645.94
2023-04-15T08:51:24.980Z,95642.09
2023-04-15T08:54:30.411Z,95635.56
2023-04-15T08:57:36.766Z,95653.13
2023-04-15T09:00:42.242Z,95634.59
2023-04-15T09:03:49.349Z,95641.28
2023-04-15T09:06:54.158Z,95649.47
2023-04-15T09:09:58.756Z,95647.91
2023-04-15T09:13:04.422Z,95661.91
2023-04-15T09:16:09.581Z,95632.53
2023-04-15T09:19:24.449Z,95654.00
2023-04-15T09:22:32.906Z,95663.09
2023-04-15T09:25:37.955Z,95688.16
2023-04-15T09:28:43.488Z,95680.97
2023-04-15T09:31:47.998Z,95661.81
2023-04-15T09:34:52.772Z,95657.78
2023-04-15T09:38:06.237Z,95697.75
2023-04-15T09:41:19.575Z,95699.25
2023-04-15T09:44:26.050Z,95675.81
2023-04-15T09:47:32.154Z,95680.78
2023-04-15T09:50:41.325Z,95664.00
2023-04-15T09:53:45.887Z,95667.81
2023-04-15T09:56:50.413Z,95695.75
2023-04-15T09:59:55.018Z,95658.88
2023-04-15T10:02:59.984Z,95680.41
2023-04-15T10:06:05.662Z,95699.22
2023-04-15T10:09:10.581Z,95662.34
2023-04-15T10:12:17.672Z,95679.06
2023-04-15T10:15:23.459Z,95654.44
2023-04-15T10:18:29.686Z,95708.06
2023-04-15T10:21:35.031Z,95677.47
2023-04-15T10:24:40.760Z,95708.47
2023-04-15T10:27:45.712Z,95699.59
2023-04-15T10:30:50.315Z,95706.22
2023-04-15T10:33:55.485Z,95684.59
2023-04-15T10:37:06.186Z,95688.91
2023-04-15T10:40:31.382Z,95725.00
2023-04-15T10:43:37.321Z,95723.25
2023-04-15T10:46:44.742Z,95732.31
2023-04-15T10:49:58.038Z,95723.56
2023-04-15T10:53:04.890Z,95725.94
2023-04-15T10:56:10.744Z,95722.97
2023-04-15T10:59:16.393Z,95701.38
2023-04-15T11:02:21.272Z,95707.75
2023-04-15T11:05:41.497Z,95736.06
2023-04-15T11:09:32.342Z,95727.06
2023-04-15T11:12:37.644Z,95731.34
2023-04-15T11:15:46.510Z,95704.69
2023-04-15T11:18:55.487Z,95744.69
2023-04-15T11:22:10.492Z,95743.38
2023-04-15T11:25:32.211Z,95735.19
2023-04-15T11:28:41.011Z,95749.25
2023-04-15T11:31:49.594Z,95758.16
2023-04-15T11:34:54.627Z,95728.06
2023-04-15T11:38:03.802Z,95729.13
2023-04-15T11:41:08.687Z,95736.59
2023-04-15T11:44:17.889Z,95764.59
2023-04-15T11:47:23.833Z,95768.66
2023-04-15T11:50:28.339Z,95746.38
2023-04-15T11:53:52.181Z,95740.22
2023-04-15T11:56:57.363Z,95741.38
2023-04-15T12:00:02.030Z,95776.50
2023-04-15T12:03:30.941Z,95769.16
2023-04-15T12:06:36.925Z,95767.38
2023-04-15T12:09:42.477Z,95744.56
2023-04-15T12:12:49.851Z,95758.16
2023-04-15T12:15:55.818Z,95768.22
2023-04-15T12:19:01.113Z,95769.84
2023-04-15T12:22:10.993Z,95784.56
2023-04-15T12:25:15.988Z,95767.78
2023-04-15T12:28:20.619Z,95756.25
2023-04-15T12:31:25.286Z,95762.84
2023-04-15T12:34:35.731Z,95773.00
2023-04-15T12:37:40.569Z,95769.63
2023-04-15T12:40:47.113Z,95763.06
2023-04-15T12:43:52.149Z,95785.72
2023-04-15T12:46:57.501Z,95792.47
2023-04-15T12:50:02.333Z,95787.38
2023-04-15T12:53:07.321Z,95769.06
2023-04-15T12:56:11.916Z,95788.59
2023-04-15T12:59:21.122Z,95789.38
2023-04-15T13:02:28.791Z,95794.34
2023-04-15T13:05:33.478Z,95787.06
2023-04-15T13:08:42.546Z,95792.81
2023-04-15T13:11:49.964Z,95814.50
2023-04-15T13:14:54.743Z,95812.81
2023-04-15T13:17:59.351Z,95806.19
2023-04-15T13:21:05.319Z,95818.59
2023-04-15T13:24:10.258Z,95840.09
2023-04-15T13:27:14.818Z,95827.66
2023-04-15T13:30:19.337Z,95836.44
2023-04-15T13:33:23.955Z,95837.56
2023-04-15T13:36:28.500Z,95814.03
2023-04-15T13:39:33.182Z,95825.63
2023-04-15T13:42:37.789Z,95810.28
2023-04-15T13:45:42.518Z,95819.72
2023-04-15T13:48:47.050Z,95820.53
2023-04-15T13:51:52.173Z,95849.41
2023-04-15T13:55:08.161Z,95836.41
2023-04-15T13:58:21.437Z,95834.59
2023-04-15T14:01:26.533Z,95825.91
2023-04-15T14:04:32.096Z,95859.25
2023-04-15T14:07:37.326Z,95826.50
2023-04-15T14:10:44.424Z,95858.72
2023-04-15T14:13:49.171Z,95848.78
2023-04-15T14:16:56.380Z,95870.75
2023-04-15T14:20:01.073Z,95844.13
2023-04-15T14:23:05.719Z,95865.94
2023-04-15T14:26:10.474Z,95864.56
2023-04-15T14:29:15.030Z,95849.56
2023-04-15T14:32:19.878Z,95878.56
2023-04-15T14:35:26.712Z,95883.81
2023-04-15T14:38:31.465Z,95873.03
2023-04-15T14:41:36.178Z,95875.09
2023-04-15T14:44:41.001Z,95888.66
2023-04-15T14:47:45.766Z,95894.97
2023-04-15T14:50:50.366Z,95898.09
2023-04-15T14:53:54.894Z,95867.34
2023-04-15T14:56:59.552Z,95896.00
2023-04-15T15:00:05.477Z,95886.22
2023-04-15T15:03:15.060Z,95928.25
2023-04-15T15:06:21.615Z,95891.53
2023-04-15T15:09:26.551Z,95917.72
2023-04-15T15:12:31.099Z,95914.38
2023-04-15T15:15:37.124Z,95925.28
2023-04-15T15:18:41.733Z,95912.72
2023-04-15T15:21:46.980Z,95902.78
2023-04-15T15:24:51.547Z,95913.09
2023-04-15T15:27:57.605Z,95941.94
2023-04-15T15:31:02.146Z,95915.41
2023-04-15T15:34:06.722Z,95920.56
2023-04-15T15:37:11.645Z,95939.81
2023-04-15T15:40:16.404Z,95927.41
2023-04-15T15:43:21.193Z,95929.19
2023-04-15T15:46:28.042Z,95964.00
2023-04-15T15:49:32.882Z,95967.84
2023-04-15T15:52:37.638Z,95961.59
2023-04-15T15:55:42.157Z,95954.75
2023-04-15T15:58:46.686Z,95954.94
2023-04-15T16:01:51.925Z,95972.34
2023-04-15T16:04:56.634Z,95964.50
2023-04-15T16:08:01.742Z,95970.13
2023-04-15T16:11:06.333Z,95970.94
2023-04-15T16:14:11.183Z,95956.50
2023-04-15T16:17:15.794Z,95970.38
2023-04-15T16:20:20.493Z,95995.88
2023-04-15T16:23:25.062Z,95966.09
2023-04-15T16:26:29.750Z,95975.94
2023-04-15T16:29:34.923Z,95983.44
2023-04-15T16:32:39.527Z,95981.97
2023-04-15T16:35:44.112Z,96015.75
2023-04-15T16:38:48.769Z,96027.22
2023-04-15T16:41:53.672Z,95995.28
2023-04-15T16:44:58.318Z,96005.31
2023-04-15T16:48:02.921Z,96022.91
2023-04-15T16:51:07.560Z,96016.66
2023-04-15T16:54:12.099Z,96041.22
2023-04-15T16:57:16.820Z,96023.66
2023-04-15T17:00:22.984Z,96047.63
2023-04-15T17:03:27.750Z,96026.44
2023-04-15T17:06:32.430Z,96055.50
2023-04-15T17:09:39.197Z,96065.59
2023-04-15T17:12:43.869Z,96042.78
2023-04-15T17:15:48.559Z,96048.56
2023-04-15T17:18:53.158Z,96053.88
2023-04-15T17:21:58.200Z,96065.19
2023-04-15T17:25:03.634Z,96021.69
2023-04-15T17:28:08.251Z,96084.63
2023-04-15T17:31:12.926Z,96097.06
2023-04-15T17:34:17.571Z,96082.25
2023-04-15T17:37:22.218Z,96115.09
2023-04-15T17:40:27.103Z,96093.41
2023-04-15T17:43:31.916Z,96109.66
2023-04-15T17:46:36.648Z,96118.16
2023-04-15T17:49:41.218Z,96120.94
2023-04-15T17:52:48.274Z,96126.38
2023-04-15T17:55:53.743Z,96118.94
2023-04-15T17:58:58.748Z,96130.34
2023-04-15T18:02:03.656Z,96147.38
2023-04-15T18:05:08.647Z,96166.16
2023-04-15T18:08:13.550Z,96144.69
2023-04-15T18:11:18.200Z,96121.94
2023-04-15T18:14:33.693Z,96167.09
2023-04-15T18:17:39.084Z,96160.91
2023-04-15T18:20:43.648Z,96169.53
2023-04-15T18:23:48.153Z,96195.22
2023-04-15T18:26:52.936Z,96188.50
2023-04-15T18:29:57.712Z,96178.31
2023-04-15T18:33:02.478Z,96182.59
2023-04-15T18:36:07.142Z,96216.28
2023-04-15T18:39:11.817Z,96218.72
2023-04-15T18:42:16.365Z,96214.56
2023-04-15T18:45:20.950Z,96205.19
2023-04-15T18:48:28.595Z,96196.28
2023-04-15T18:51:33.305Z,96214.59
2023-04-15T18:54:38.189Z,96190.63
2023-04-15T18:57:44.947Z,96220.78
2023-04-15T19:00:49.786Z,96227.59
2023-04-15T19:03:54.411Z,96227.41
2023-04-15T19:06:59.193Z,96244.97
2023-04-15T19:10:05.866Z,96243.38
2023-04-15T19:13:10.512Z,96213.34
2023-04-15T19:16:15.206Z,96257.19
2023-04-15T19:19:20.059Z,96258.66
2023-04-15T19:22:24.766Z,96258.34
2023-04-15T19:25:30.725Z,96265.63
2023-04-15T19:28:35.659Z,96265.69
2023-04-15T19:31:40.199Z,96270.50
2023-04-15T19:34:44.936Z,96298.88
2023-04-15T19:37:49.524Z,96275.66
2023-04-15T19:40:54.236Z,96301.81
2023-04-15T19:43:58.821Z,96276.31
2023-04-15T19:47:03.354Z,96299.13
2023-04-15T19:50:10.151Z,96280.63
2023-04-15T19:53:14.702Z,96270.84
2023-04-15T19:56:20.239Z,96277.44
2023-04-15T19:59:24.852Z,96282.28
2023-04-15T20:02:30.273Z,96292.69
2023-04-15T20:05:35.547Z,96297.06
2023-04-15T20:08:40.117Z,96315.91
2023-04-15T20:12:47.931Z,96315.81
2023-04-15T20:15:09.735Z,96320.56
2023-04-15T20:18:14.744Z,96315.34
2023-04-15T20:21:19.540Z,96308.22
2023-04-15T20:24:24.325Z,96322.38
2023-04-15T20:27:29.434Z,96300.84
2023-04-15T20:30:34.323Z,96312.16
2023-04-15T20:33:38.894Z,96339.69
2023-04-15T20:36:43.570Z,96320.44
2023-04-15T20:39:48.562Z,96340.69
2023-04-15T20:42:53.145Z,96321.94
2023-04-15T20:46:02.150Z,96352.41
2023-04-15T20:49:11.474Z,96334.91
2023-04-15T20:52:16.248Z,96333.78
2023-04-15T20:55:20.932Z,96369.09
2023-04-15T20:58:26.581Z,96350.00
2023-04-15T21:01:31.280Z,96370.75
2023-04-15T21:04:37.805Z,96375.03
2023-04-15T21:07:42.361Z,96371.84
2023-04-15T21:10:46.942Z,96358.34
2023-04-15T21:13:51.594Z,96345.03
2023-04-15T21:16:59.598Z,96377.16
2023-04-15T21:20:04.753Z,96391.88
2023-04-15T21:23:11.297Z,96381.19
2023-04-15T21:26:18.464Z,96373.72
2023-04-15T21:29:23.985Z,96405.47
2023-04-15T21:32:30.499Z,96400.81
2023-04-15T21:35:35.288Z,96393.63
2023-04-15T21:38:39.760Z,96385.13
2023-04-15T21:41:44.398Z,96406.78
2023-04-15T21:44:48.956Z,96417.78
2023-04-15T21:48:05.846Z,96395.50
2023-04-15T21:51:13.022Z,96401.19
2023-04-15T21:54:17.738Z,96424.38
2023-04-15T21:57:22.362Z,96408.66
2023-04-15T22:00:26.952Z,96403.72
2023-04-15T22:03:34.420Z,96411.13
2023-04-15T22:06:39.405Z,96425.34
2023-04-15T22:09:43.988Z,96438.31
2023-04-15T22:12:48.473Z,96419.47
2023-04-15T22:15:53.064Z,96434.38
2023-04-15T22:18:57.738Z,96424.22
2023-04-15T22:22:02.292Z,96416.19
2023-04-15T22:25:07.703Z,96417.97
2023-04-15T22:28:12.918Z,96450.97
2023-04-15T22:31:17.741Z,96446.72
2023-04-15T22:34:22.581Z,96460.72
2023-04-15T22:37:30.445Z,96442.25
2023-04-15T22:40:35.131Z,96467.88
2023-04-15T22:43:39.630Z,96457.97
2023-04-15T22:46:44.296Z,96444.50
2023-04-15T22:49:49.135Z,96475.34
2023-04-15T22:52:53.697Z,96466.88
2023-04-15T22:55:58.262Z,96463.22
2023-04-15T22:59:02.832Z,96454.81
2023-04-15T23:02:07.481Z,96482.72
2023-04-15T23:05:13.379Z,96468.72
2023-04-15T23:08:18.208Z,96483.94
2023-04-15T23:11:22.889Z,96491.16
2023-04-15T23:14:28.043Z,96476.88
2023-04-15T23:17:32.682Z,96461.16
2023-04-15T23:20:37.249Z,96485.91
2023-04-15T23:23:41.898Z,96483.56
2023-04-15T23:26:46.461Z,96480.78
2023-04-15T23:29:51.228Z,96491.97
2023-04-15T23:32:55.963Z,96498.53
2023-04-15T23:36:00.557Z,96503.06
2023-04-15T23:39:05.577Z,96500.41
2023-04-15T23:42:10.684Z,96479.78
2023-04-15T23:45:15.398Z,96522.47
2023-04-15T23:48:20.012Z,96487.09
2023-04-15T23:51:24.514Z,96490.72
2023-04-15T23:54:29.110Z,96496.06
2023-04-15T23:57:33.782Z,96451.38
